createdAt,value
2022-08-29T00:02:12.498Z,3.35
2022-08-29T00:04:40.181Z,3.70
2022-08-29T00:07:07.855Z,3.38
2022-08-29T00:09:35.419Z,3.30
2022-08-29T00:12:03.242Z,3.40
2022-08-29T00:14:31.233Z,3.60
2022-08-29T00:16:59.008Z,3.85
2022-08-29T00:19:26.812Z,3.60
2022-08-29T00:21:54.390Z,4.05
2022-08-29T00:24:22.209Z,4.18
2022-08-29T00:26:49.768Z,3.80
2022-08-29T00:29:17.431Z,4.10
2022-08-29T00:31:45.260Z,4.10
2022-08-29T00:34:12.834Z,4.18
2022-08-29T00:36:40.495Z,4.00
2022-08-29T00:39:09.274Z,4.53
2022-08-29T00:41:37.070Z,3.90
2022-08-29T00:44:05.798Z,4.07
2022-08-29T00:46:42.929Z,3.90
2022-08-29T00:49:13.688Z,4.00
2022-08-29T00:51:41.841Z,4.10
2022-08-29T00:54:11.796Z,4.20
2022-08-29T00:56:41.805Z,4.13
2022-08-29T00:59:14.763Z,4.28
2022-08-29T01:01:42.960Z,3.78
2022-08-29T01:06:53.234Z,4.30
2022-08-29T01:09:22.428Z,3.60
2022-08-29T01:12:13.428Z,3.97
2022-08-29T01:14:47.877Z,3.78
2022-08-29T01:17:22.089Z,3.55
2022-08-29T01:19:58.135Z,3.90
2022-08-29T01:22:47.630Z,3.45
2022-08-29T01:25:22.201Z,3.53
2022-08-29T01:28:06.160Z,3.63
2022-08-29T01:30:33.804Z,3.05
2022-08-29T01:33:01.845Z,3.45
2022-08-29T01:35:29.501Z,3.42
2022-08-29T01:37:57.264Z,4.05
2022-08-29T01:40:29.155Z,3.88
2022-08-29T01:42:57.575Z,4.03
2022-08-29T01:45:25.383Z,3.78
2022-08-29T01:47:52.999Z,3.90
2022-08-29T01:50:20.839Z,3.60
2022-08-29T01:52:48.609Z,3.90
2022-08-29T01:55:16.136Z,3.70
2022-08-29T01:57:44.348Z,3.47
2022-08-29T02:00:12.823Z,3.78
2022-08-29T02:02:42.170Z,4.07
2022-08-29T02:05:10.244Z,3.60
2022-08-29T02:07:37.827Z,3.58
2022-08-29T02:10:06.937Z,3.80
2022-08-29T02:12:35.532Z,4.07
2022-08-29T02:15:03.723Z,4.43
2022-08-29T02:19:58.681Z,4.40
2022-08-29T02:22:26.196Z,4.78
2022-08-29T02:24:53.787Z,4.45
2022-08-29T02:27:21.458Z,4.40
2022-08-29T02:29:48.967Z,4.57
2022-08-29T02:32:16.598Z,4.32
2022-08-29T02:34:47.805Z,4.57
2022-08-29T02:37:16.371Z,4.43
2022-08-29T02:39:44.004Z,4.50
2022-08-29T02:42:11.518Z,4.70
2022-08-29T02:44:39.256Z,4.70
2022-08-29T02:47:09.105Z,4.85
2022-08-29T02:49:36.875Z,4.00
2022-08-29T02:52:06.606Z,4.20
2022-08-29T02:54:35.011Z,4.22
2022-08-29T02:57:02.891Z,3.78
2022-08-29T02:59:30.413Z,4.10
2022-08-29T03:01:58.008Z,4.20
2022-08-29T03:04:25.669Z,3.83
2022-08-29T03:06:53.560Z,4.30
2022-08-29T03:09:21.124Z,3.80
2022-08-29T03:11:48.632Z,3.90
2022-08-29T03:14:16.191Z,3.58
2022-08-29T03:16:43.771Z,3.67
2022-08-29T03:19:11.254Z,4.15
2022-08-29T03:21:38.811Z,4.00
2022-08-29T03:24:06.681Z,4.47
2022-08-29T03:26:34.172Z,3.80
2022-08-29T03:29:01.816Z,4.10
2022-08-29T03:31:30.020Z,3.88
2022-08-29T03:33:57.722Z,3.90
2022-08-29T03:36:27.040Z,3.85
2022-08-29T03:38:54.619Z,4.00
2022-08-29T03:41:25.551Z,4.03
2022-08-29T03:43:55.282Z,4.18
2022-08-29T03:46:24.150Z,3.85
2022-08-29T03:48:51.860Z,3.95
2022-08-29T03:51:20.442Z,3.83
2022-08-29T03:53:48.123Z,3.85
2022-08-29T03:56:18.714Z,3.72
2022-08-29T03:58:52.652Z,3.88
2022-08-29T04:01:24.427Z,4.00
2022-08-29T04:03:52.910Z,4.35
2022-08-29T04:06:22.415Z,4.18
2022-08-29T04:08:51.662Z,3.95
2022-08-29T04:11:20.299Z,4.10
2022-08-29T04:13:49.051Z,4.22
2022-08-29T04:16:21.873Z,4.07
2022-08-29T04:18:49.730Z,4.40
2022-08-29T04:21:18.710Z,4.40
2022-08-29T04:23:46.417Z,4.68
2022-08-29T04:26:35.779Z,4.72
2022-08-29T04:29:09.348Z,4.05
2022-08-29T04:31:38.232Z,4.15
2022-08-29T04:34:07.543Z,4.38
2022-08-29T04:36:36.600Z,4.95
2022-08-29T04:39:04.976Z,4.80
2022-08-29T04:41:33.338Z,4.70
2022-08-29T04:44:02.214Z,4.63
2022-08-29T04:46:30.284Z,4.32
2022-08-29T04:49:03.232Z,4.35
2022-08-29T04:51:34.551Z,4.50
2022-08-29T04:54:03.671Z,4.93
2022-08-29T04:56:31.298Z,4.38
2022-08-29T04:58:58.901Z,4.80
2022-08-29T05:01:27.397Z,5.18
2022-08-29T05:03:57.891Z,4.68
2022-08-29T05:06:25.824Z,4.50
2022-08-29T05:08:59.284Z,4.85
2022-08-29T05:11:30.319Z,4.47
2022-08-29T05:13:59.761Z,4.60
2022-08-29T05:16:27.591Z,4.50
2022-08-29T05:18:55.579Z,3.92
2022-08-29T05:21:28.779Z,4.32
2022-08-29T05:23:56.691Z,4.35
2022-08-29T05:26:29.768Z,4.45
2022-08-29T05:28:57.463Z,4.22
2022-08-29T05:31:25.975Z,4.63
2022-08-29T05:33:53.551Z,4.63
2022-08-29T05:36:21.316Z,4.70
2022-08-29T05:38:48.940Z,4.53
2022-08-29T05:41:19.062Z,4.47
2022-08-29T05:43:47.253Z,4.72
2022-08-29T05:46:14.825Z,4.40
2022-08-29T05:48:48.481Z,4.75
2022-08-29T05:53:48.476Z,4.63
2022-08-29T05:58:50.867Z,4.68
2022-08-29T06:01:28.987Z,4.50
2022-08-29T06:04:01.045Z,4.18
2022-08-29T06:11:28.422Z,4.70
2022-08-29T06:13:56.435Z,4.70
2022-08-29T06:16:26.129Z,4.85
2022-08-29T06:18:54.220Z,4.25
2022-08-29T06:21:22.478Z,4.20
2022-08-29T06:26:18.927Z,3.63
2022-08-29T06:28:46.753Z,3.25
2022-08-29T06:31:24.712Z,3.33
2022-08-29T06:33:53.733Z,2.88
2022-08-29T06:36:21.587Z,2.90
2022-08-29T06:38:49.255Z,2.72
2022-08-29T06:41:17.864Z,2.60
2022-08-29T06:43:45.710Z,2.65
2022-08-29T06:46:31.939Z,2.67
2022-08-29T06:49:01.451Z,2.90
2022-08-29T06:51:32.992Z,2.42
2022-08-29T06:54:07.123Z,2.25
2022-08-29T06:56:36.704Z,2.42
2022-08-29T06:59:06.400Z,2.28
2022-08-29T07:01:35.105Z,2.40
2022-08-29T07:04:03.371Z,2.22
2022-08-29T07:06:32.472Z,2.35
2022-08-29T07:09:00.590Z,2.20
2022-08-29T07:11:30.198Z,2.20
2022-08-29T07:14:00.405Z,2.50
2022-08-29T07:16:29.230Z,2.58
2022-08-29T07:18:56.814Z,2.58
2022-08-29T07:21:26.600Z,2.08
2022-08-29T07:23:55.355Z,2.20
2022-08-29T07:26:44.871Z,2.05
2022-08-29T07:29:19.478Z,2.15
2022-08-29T07:31:47.767Z,2.08
2022-08-29T07:34:15.639Z,2.10
2022-08-29T07:36:43.279Z,2.08
2022-08-29T07:39:14.158Z,1.88
2022-08-29T07:41:43.706Z,1.98
2022-08-29T07:44:12.539Z,1.70
2022-08-29T07:46:40.542Z,2.05
2022-08-29T07:49:08.300Z,2.08
2022-08-29T07:51:36.160Z,1.60
2022-08-29T07:54:04.840Z,2.03
2022-08-29T07:56:40.762Z,2.00
2022-08-29T07:59:09.487Z,1.45
2022-08-29T08:01:37.724Z,1.75
2022-08-29T08:04:05.989Z,2.00
2022-08-29T08:06:36.644Z,1.58
2022-08-29T08:09:05.814Z,1.60
2022-08-29T08:11:33.952Z,1.80
2022-08-29T08:16:30.311Z,1.77
2022-08-29T08:18:58.121Z,1.90
2022-08-29T08:21:26.520Z,1.77
2022-08-29T08:23:54.498Z,1.90
2022-08-29T08:26:23.117Z,1.80
2022-08-29T08:28:52.214Z,1.80
2022-08-29T08:31:22.965Z,1.67
2022-08-29T08:36:28.703Z,1.85
2022-08-29T08:38:59.435Z,1.85
2022-08-29T08:42:03.247Z,1.83
2022-08-29T08:44:55.927Z,1.70
2022-08-29T08:47:28.555Z,1.92
2022-08-29T08:50:18.133Z,1.30
2022-08-29T08:52:58.820Z,1.75
2022-08-29T08:55:37.419Z,1.63
2022-08-29T08:58:40.350Z,1.75
2022-08-29T09:01:45.382Z,1.63
2022-08-29T09:04:45.230Z,2.00
2022-08-29T09:07:46.154Z,1.92
2022-08-29T09:10:31.185Z,2.00
2022-08-29T09:13:14.693Z,1.83
2022-08-29T09:15:45.297Z,1.50
2022-08-29T09:18:41.281Z,1.88
2022-08-29T09:21:39.488Z,1.58
2022-08-29T09:24:06.940Z,1.90
2022-08-29T09:26:35.463Z,1.55
2022-08-29T09:29:03.249Z,1.90
2022-08-29T09:31:34.132Z,1.50
2022-08-29T09:34:07.630Z,1.70
2022-08-29T09:36:40.146Z,1.75
2022-08-29T09:39:21.500Z,1.50
2022-08-29T09:41:58.279Z,1.85
2022-08-29T09:44:32.626Z,1.45
2022-08-29T09:47:14.523Z,1.50
2022-08-29T09:50:00.405Z,1.50
2022-08-29T09:52:28.025Z,1.60
2022-08-29T09:54:55.977Z,1.75
2022-08-29T09:57:27.659Z,1.52
2022-08-29T10:00:15.779Z,1.70
2022-08-29T10:02:51.026Z,1.98
2022-08-29T10:05:30.804Z,1.85
2022-08-29T10:07:58.386Z,1.58
2022-08-29T10:10:30.679Z,1.90
2022-08-29T10:13:11.736Z,1.83
2022-08-29T10:15:52.600Z,1.80
2022-08-29T10:18:45.669Z,1.60
2022-08-29T10:21:24.400Z,1.85
2022-08-29T10:24:19.527Z,2.00
2022-08-29T10:26:56.287Z,1.73
2022-08-29T10:29:39.755Z,1.90
2022-08-29T10:32:51.749Z,1.90
2022-08-29T10:35:35.216Z,1.50
2022-08-29T10:38:05.852Z,1.70
2022-08-29T10:40:43.240Z,1.60
2022-08-29T10:46:03.272Z,1.65
2022-08-29T10:48:38.240Z,1.90
2022-08-29T10:51:18.310Z,1.90
2022-08-29T10:53:55.122Z,2.10
2022-08-29T10:56:30.471Z,2.13
2022-08-29T10:59:07.125Z,1.65
2022-08-29T11:01:48.229Z,1.70
2022-08-29T11:04:22.097Z,1.65
2022-08-29T11:06:58.165Z,1.65
2022-08-29T11:09:54.445Z,1.70
2022-08-29T11:12:47.609Z,1.95
2022-08-29T11:15:38.892Z,2.20
2022-08-29T11:18:15.615Z,1.95
2022-08-29T11:21:16.560Z,2.20
2022-08-29T11:23:49.316Z,1.92
2022-08-29T11:26:22.707Z,2.30
2022-08-29T11:29:05.157Z,1.98
2022-08-29T11:31:38.666Z,2.03
2022-08-29T11:34:39.733Z,2.05
2022-08-29T11:37:19.996Z,2.35
2022-08-29T11:40:10.127Z,2.30
2022-08-29T11:42:56.736Z,1.90
2022-08-29T11:45:37.220Z,2.42
2022-08-29T11:48:36.440Z,2.40
2022-08-29T11:51:28.982Z,2.42
2022-08-29T11:54:16.899Z,2.90
2022-08-29T11:56:44.597Z,2.33
2022-08-29T11:59:44.704Z,2.45
2022-08-29T12:02:32.205Z,2.60
2022-08-29T12:05:01.088Z,2.75
2022-08-29T12:07:48.961Z,2.28
2022-08-29T12:12:51.248Z,2.45
2022-08-29T12:15:32.162Z,2.65
2022-08-29T12:18:02.533Z,2.50
2022-08-29T12:20:30.765Z,2.67
2022-08-29T12:23:03.624Z,2.72
2022-08-29T12:25:48.048Z,2.35
2022-08-29T12:28:17.426Z,2.35
2022-08-29T12:33:36.668Z,2.63
2022-08-29T12:36:36.599Z,2.20
2022-08-29T12:39:35.300Z,2.45
2022-08-29T12:42:11.792Z,2.40
2022-08-29T12:44:44.854Z,2.30
2022-08-29T12:47:34.835Z,2.20
2022-08-29T12:50:34.420Z,2.28
2022-08-29T12:53:15.336Z,2.33
2022-08-29T12:55:49.266Z,2.20
2022-08-29T12:58:36.507Z,2.45
2022-08-29T13:01:09.338Z,2.05
2022-08-29T13:03:36.972Z,2.53
2022-08-29T13:06:08.379Z,2.40
2022-08-29T13:08:39.419Z,2.30
2022-08-29T13:11:10.954Z,2.47
2022-08-29T13:13:39.923Z,2.25
2022-08-29T13:16:21.541Z,2.35
2022-08-29T13:19:09.702Z,2.00
2022-08-29T13:21:36.939Z,2.03
2022-08-29T13:24:11.498Z,2.13
2022-08-29T13:27:02.967Z,2.03
2022-08-29T13:29:41.901Z,2.28
2022-08-29T13:32:23.981Z,2.00
2022-08-29T13:35:07.999Z,2.70
2022-08-29T13:37:38.652Z,2.92
2022-08-29T13:40:36.795Z,2.70
2022-08-29T13:43:07.202Z,2.05
2022-08-29T13:48:18.920Z,2.50
2022-08-29T13:53:15.396Z,2.60
2022-08-29T13:58:12.733Z,1.92
2022-08-29T14:00:41.052Z,1.90
2022-08-29T14:03:12.363Z,2.00
2022-08-29T14:05:43.169Z,2.00
2022-08-29T14:08:12.750Z,2.47
2022-08-29T14:10:40.661Z,2.53
2022-08-29T14:13:09.795Z,3.03
2022-08-29T14:15:38.273Z,2.20
2022-08-29T14:18:06.020Z,2.17
2022-08-29T14:20:33.950Z,2.90
2022-08-29T14:23:01.584Z,2.50
2022-08-29T14:25:29.680Z,3.15
2022-08-29T14:30:25.384Z,1.92
2022-08-29T14:32:53.019Z,1.90
2022-08-29T14:35:26.573Z,2.75
2022-08-29T14:38:01.200Z,3.03
2022-08-29T14:40:29.852Z,2.33
2022-08-29T14:43:00.518Z,1.90
2022-08-29T14:45:29.396Z,1.75
2022-08-29T14:47:57.224Z,1.92
2022-08-29T14:50:25.423Z,2.15
2022-08-29T14:55:21.467Z,1.85
2022-08-29T14:57:49.287Z,2.25
2022-08-29T15:00:27.398Z,2.20
2022-08-29T15:02:56.402Z,2.00
2022-08-29T15:05:24.293Z,2.10
2022-08-29T15:07:52.411Z,2.08
2022-08-29T15:12:48.384Z,1.60
2022-08-29T15:15:16.942Z,1.92
2022-08-29T15:17:44.614Z,1.85
2022-08-29T15:23:02.533Z,2.00
2022-08-29T15:25:30.068Z,2.50
2022-08-29T15:27:57.772Z,2.05
2022-08-29T15:30:26.222Z,2.05
2022-08-29T15:32:53.925Z,2.08
2022-08-29T15:35:21.500Z,2.00
2022-08-29T15:37:49.348Z,2.00
2022-08-29T15:40:17.125Z,2.35
2022-08-29T15:42:45.280Z,1.95
2022-08-29T15:47:40.849Z,2.10
2022-08-29T15:50:15.152Z,1.90
2022-08-29T15:52:42.980Z,2.20
2022-08-29T15:55:12.725Z,2.15
2022-08-29T15:57:51.638Z,1.52
2022-08-29T16:00:30.411Z,1.80
2022-08-29T16:03:03.707Z,2.20
2022-08-29T16:05:32.139Z,1.98
2022-08-29T16:07:59.780Z,1.88
2022-08-29T16:10:27.553Z,1.75
2022-08-29T16:12:55.358Z,2.17
2022-08-29T16:15:24.250Z,1.90
2022-08-29T16:17:52.562Z,2.03
2022-08-29T16:20:20.414Z,2.20
2022-08-29T16:22:48.055Z,2.28
2022-08-29T16:25:15.880Z,1.88
2022-08-29T16:27:43.672Z,2.00
2022-08-29T16:30:12.303Z,2.00
2022-08-29T16:32:40.242Z,1.83
2022-08-29T16:35:08.980Z,2.03
2022-08-29T16:37:37.467Z,1.95
2022-08-29T16:40:07.942Z,1.98
2022-08-29T16:42:37.480Z,1.73
2022-08-29T16:45:07.419Z,1.60
2022-08-29T16:47:35.177Z,1.95
2022-08-29T16:50:03.720Z,2.13
2022-08-29T16:52:31.741Z,2.05
2022-08-29T16:54:59.623Z,1.77
2022-08-29T16:57:27.375Z,1.88
2022-08-29T16:59:55.609Z,1.75
2022-08-29T17:02:23.525Z,1.70
2022-08-29T17:04:51.326Z,1.83
2022-08-29T17:07:19.869Z,1.90
2022-08-29T17:09:47.717Z,1.77
2022-08-29T17:12:15.374Z,1.85
2022-08-29T17:14:43.813Z,1.95
2022-08-29T17:17:11.684Z,1.90
2022-08-29T17:19:39.394Z,2.05
2022-08-29T17:22:15.707Z,1.90
2022-08-29T17:24:44.786Z,1.75
2022-08-29T17:27:17.105Z,1.60
2022-08-29T17:29:47.445Z,2.13
2022-08-29T17:32:15.417Z,1.75
2022-08-29T17:34:43.419Z,1.77
2022-08-29T17:37:11.465Z,1.63
2022-08-29T17:39:40.083Z,1.83
2022-08-29T17:42:08.157Z,1.83
2022-08-29T17:44:35.984Z,1.77
2022-08-29T17:47:04.233Z,1.92
2022-08-29T17:52:00.382Z,2.92
2022-08-29T17:56:58.776Z,2.83
2022-08-29T17:59:29.839Z,2.05
2022-08-29T18:01:58.352Z,1.52
2022-08-29T18:04:26.974Z,1.73
2022-08-29T18:06:58.355Z,1.50
2022-08-29T18:09:26.193Z,1.40
2022-08-29T18:11:54.990Z,1.38
2022-08-29T18:14:23.854Z,1.63
2022-08-29T18:16:52.856Z,1.30
2022-08-29T18:19:22.070Z,1.67
2022-08-29T18:21:51.656Z,1.65
2022-08-29T18:24:20.248Z,1.48
2022-08-29T18:26:48.732Z,1.58
2022-08-29T18:29:16.785Z,1.90
2022-08-29T18:31:44.869Z,1.80
2022-08-29T18:34:13.355Z,1.80
2022-08-29T18:36:43.341Z,1.80
2022-08-29T18:39:11.896Z,1.40
2022-08-29T18:41:39.722Z,1.85
2022-08-29T18:44:08.078Z,3.78
2022-08-29T18:46:36.011Z,6.25
2022-08-29T18:49:04.084Z,4.35
2022-08-29T18:51:35.004Z,3.30
2022-08-29T18:54:04.329Z,3.15
2022-08-29T18:56:32.908Z,2.33
2022-08-29T18:59:00.484Z,2.53
2022-08-29T19:01:29.619Z,2.00
2022-08-29T19:03:58.970Z,1.92
2022-08-29T19:06:27.335Z,1.90
2022-08-29T19:08:56.499Z,2.65
2022-08-29T19:11:25.419Z,1.60
2022-08-29T19:13:53.888Z,1.83
2022-08-29T19:16:23.393Z,1.98
2022-08-29T19:18:51.869Z,2.10
2022-08-29T19:21:19.737Z,3.33
2022-08-29T19:23:52.850Z,1.88
2022-08-29T19:26:24.549Z,1.80
2022-08-29T19:28:54.202Z,1.50
2022-08-29T19:31:24.680Z,1.80
2022-08-29T19:33:53.467Z,2.10
2022-08-29T19:36:21.244Z,1.65
2022-08-29T19:38:49.103Z,1.92
2022-08-29T19:41:16.889Z,2.33
2022-08-29T19:43:45.177Z,2.08
2022-08-29T19:46:17.972Z,1.83
2022-08-29T19:48:51.510Z,1.92
2022-08-29T19:51:25.064Z,1.88
2022-08-29T19:53:57.409Z,1.88
2022-08-29T19:56:26.486Z,2.13
2022-08-29T19:58:55.524Z,2.15
2022-08-29T20:01:23.287Z,2.20
2022-08-29T20:03:50.885Z,2.13
2022-08-29T20:06:20.539Z,2.38
2022-08-29T20:11:25.056Z,2.35
2022-08-29T20:13:57.361Z,2.42
2022-08-29T20:16:29.675Z,2.30
2022-08-29T20:18:58.742Z,2.42
2022-08-29T20:21:26.708Z,2.50
2022-08-29T20:23:58.283Z,2.30
2022-08-29T20:26:34.558Z,2.83
2022-08-29T20:29:05.121Z,2.78
2022-08-29T20:31:33.368Z,2.92
2022-08-29T20:34:01.491Z,2.95
2022-08-29T20:36:47.842Z,2.95
2022-08-29T20:39:19.010Z,3.03
2022-08-29T20:41:51.589Z,3.47
2022-08-29T20:44:20.392Z,4.03
2022-08-29T20:46:49.213Z,3.45
2022-08-29T20:49:19.547Z,3.40
2022-08-29T20:51:47.571Z,3.38
2022-08-29T20:54:18.158Z,2.97
2022-08-29T20:56:46.072Z,2.40
2022-08-29T20:59:13.688Z,2.65
2022-08-29T21:01:41.708Z,2.30
2022-08-29T21:04:30.007Z,2.10
2022-08-29T21:07:03.106Z,2.00
2022-08-29T21:09:31.015Z,2.00
2022-08-29T21:11:58.983Z,1.98
2022-08-29T21:14:27.420Z,2.00
2022-08-29T21:16:57.081Z,2.13
2022-08-29T21:19:29.666Z,2.00
2022-08-29T21:21:59.552Z,2.25
2022-08-29T21:24:27.719Z,2.10
2022-08-29T21:29:23.175Z,2.00
2022-08-29T21:31:53.934Z,2.13
2022-08-29T21:34:22.583Z,2.15
2022-08-29T21:36:50.621Z,2.00
2022-08-29T21:39:28.643Z,2.10
2022-08-29T21:41:57.819Z,2.20
2022-08-29T21:44:28.547Z,2.22
2022-08-29T21:46:56.119Z,2.00
2022-08-29T21:49:23.855Z,2.20
2022-08-29T21:51:51.420Z,2.17
2022-08-29T21:54:20.595Z,2.05
2022-08-29T21:56:49.317Z,2.50
2022-08-29T21:59:17.749Z,2.67
2022-08-29T22:01:47.283Z,2.30
2022-08-29T22:04:28.727Z,2.40
2022-08-29T22:06:58.083Z,2.60
2022-08-29T22:09:25.723Z,2.00
2022-08-29T22:11:53.309Z,2.38
2022-08-29T22:14:20.823Z,2.25
2022-08-29T22:16:48.349Z,2.50
2022-08-29T22:19:17.401Z,2.25
2022-08-29T22:21:48.345Z,2.10
2022-08-29T22:24:17.899Z,2.13
2022-08-29T22:26:46.792Z,2.17
2022-08-29T22:29:15.962Z,2.38
2022-08-29T22:31:44.990Z,2.30
2022-08-29T22:34:14.863Z,1.98
2022-08-29T22:36:42.824Z,2.00
2022-08-29T22:39:11.057Z,2.72
2022-08-29T22:41:38.935Z,2.22
2022-08-29T22:44:52.613Z,2.50
2022-08-29T22:46:54.774Z,2.13
2022-08-29T22:51:52.996Z,2.30
2022-08-29T22:54:35.477Z,2.42
2022-08-29T22:57:08.841Z,2.05
2022-08-29T22:59:37.274Z,2.10
2022-08-29T23:02:06.199Z,2.20
2022-08-29T23:04:34.759Z,2.30
2022-08-29T23:07:02.898Z,2.25
2022-08-29T23:12:05.691Z,2.58
2022-08-29T23:14:35.727Z,2.33
2022-08-29T23:17:08.659Z,2.55
2022-08-29T23:19:37.192Z,2.47
2022-08-29T23:22:10.170Z,2.53
2022-08-29T23:24:40.328Z,2.00
2022-08-29T23:27:29.906Z,2.25
2022-08-29T23:29:58.773Z,2.67
2022-08-29T23:32:27.156Z,2.20
2022-08-29T23:34:54.985Z,2.33
2022-08-29T23:37:22.858Z,2.17
2022-08-29T23:39:50.894Z,2.30
2022-08-29T23:42:18.767Z,2.22
2022-08-29T23:44:48.413Z,2.70
2022-08-29T23:47:17.279Z,2.40
2022-08-29T23:49:44.952Z,1.90
2022-08-29T23:52:13.439Z,2.50
2022-08-29T23:54:41.604Z,2.10
2022-08-29T23:57:09.143Z,2.10
